Time;durP1;ratioP1;P1;durP2;ratioP2;P2;SDS_P1;SDS_P2;PMS_P1;PMS_P2;Temp;Humidity;BMP_temperature;BMP_pressure;BME280_temperature;BME280_humidity;BME280_pressure;Samples;Min_cycle;Max_cycle;Signal;HPM_P1;HPM_P2
2024/02/29 00:02:16;;;;;;;29.65;17.33;;;;;;;12.59;66.84;101511.28;5050355;28;20079;-45
2024/02/29 00:04:41;;;;;;;33.50;17.83;;;;;;;12.73;65.92;101507.16;5031585;28;20060;-46
2024/02/29 00:07:08;;;;;;;35.42;18.33;;;;;;;12.77;66.08;101508.06;5050676;28;20024;-46
2024/02/29 00:09:35;;;;;;;33.88;18.27;;;;;;;12.74;66.15;101500.19;5050673;28;20049;-46
2024/02/29 00:12:01;;;;;;;37.13;18.42;;;;;;;12.59;65.58;101499.09;5031909;28;20108;-46
2024/02/29 00:14:26;;;;;;;36.45;18.08;;;;;;;12.67;66.11;101493.97;4999980;28;20040;-46
2024/02/29 00:16:52;;;;;;;38.85;19.13;;;;;;;12.39;66.90;101497.00;5049342;28;20091;-46
2024/02/29 00:19:18;;;;;;;38.17;18.58;;;;;;;12.63;66.43;101486.91;5050452;28;20439;-47
2024/02/29 00:21:45;;;;;;;35.80;17.75;;;;;;;12.68;66.14;101480.03;5031795;28;20029;-47
2024/02/29 00:24:11;;;;;;;33.35;18.02;;;;;;;12.75;66.09;101478.38;5050404;28;20530;-45
2024/02/29 00:26:36;;;;;;;37.58;19.13;;;;;;;12.50;66.89;101477.16;5050322;28;20035;-48
2024/02/29 00:29:01;;;;;;;37.10;19.40;;;;;;;12.23;67.98;101474.97;5032570;28;20036;-44
2024/02/29 00:31:27;;;;;;;43.05;18.92;;;;;;;12.29;68.31;101475.09;5032947;28;20037;-45
2024/02/29 00:33:52;;;;;;;35.47;18.52;;;;;;;12.17;68.27;101467.03;5032889;28;20037;-46
2024/02/29 00:36:18;;;;;;;35.25;19.27;;;;;;;12.69;66.75;101468.69;5033350;28;20025;-44
2024/02/29 00:38:44;;;;;;;36.33;18.05;;;;;;;12.46;66.69;101471.00;5049786;28;20040;-46
2024/02/29 00:41:09;;;;;;;43.03;18.85;;;;;;;12.73;66.70;101467.03;5032042;28;20041;-47
2024/02/29 00:43:35;;;;;;;35.42;18.77;;;;;;;12.30;68.45;101462.88;5050718;28;20402;-47
2024/02/29 00:46:00;;;;;;;33.50;17.75;;;;;;;12.49;67.43;101470.16;5031789;28;20379;-44
2024/02/29 00:48:26;;;;;;;37.72;18.27;;;;;;;12.44;67.68;101466.59;5050042;28;20131;-45
2024/02/29 00:50:51;;;;;;;36.58;18.48;;;;;;;12.59;67.11;101462.47;5031212;28;20044;-47
2024/02/29 00:53:17;;;;;;;38.17;18.63;;;;;;;12.47;67.00;101469.25;5049979;28;20068;-47
2024/02/29 00:55:43;;;;;;;34.95;19.15;;;;;;;12.60;67.06;101456.38;5049344;28;20037;-45
2024/02/29 00:58:08;;;;;;;36.67;18.60;;;;;;;12.66;65.82;101442.50;5032671;28;20028;-45
2024/02/29 01:00:34;;;;;;;36.78;17.80;;;;;;;12.76;66.02;101452.22;5015442;28;20029;-43
2024/02/29 01:02:59;;;;;;;35.88;17.75;;;;;;;12.37;66.67;101446.44;5050038;28;20116;-45
2024/02/29 01:05:24;;;;;;;37.17;18.45;;;;;;;12.30;67.18;101441.97;5050300;28;20067;-46
2024/02/29 01:07:50;;;;;;;30.73;16.65;;;;;;;12.68;66.39;101442.53;5049471;28;20087;-45
2024/02/29 01:10:15;;;;;;;33.70;17.65;;;;;;;12.56;66.72;101435.41;5032405;28;20033;-46
2024/02/29 01:12:44;;;;;;;34.17;17.38;;;;;;;12.50;67.21;101435.31;5031355;28;20398;-44
2024/02/29 01:15:10;;;;;;;34.47;17.92;;;;;;;12.56;66.74;101425.78;5051906;28;20090;-45
2024/02/29 01:17:36;;;;;;;31.38;16.67;;;;;;;12.62;66.82;101421.53;5055465;28;20487;-47
2024/02/29 01:20:03;;;;;;;38.40;17.13;;;;;;;12.56;67.42;101420.56;5055140;28;20035;-45
2024/02/29 01:22:28;;;;;;;35.90;17.20;;;;;;;12.36;68.70;101419.41;5055328;28;20033;-45
2024/02/29 01:24:54;;;;;;;34.38;17.13;;;;;;;12.55;68.18;101410.09;5038120;28;20051;-46
2024/02/29 01:27:19;;;;;;;33.83;16.67;;;;;;;12.20;68.89;101404.34;5040616;28;20041;-45
2024/02/29 01:29:44;;;;;;;33.47;16.42;;;;;;;11.94;71.04;101414.41;5038634;28;20033;-47
2024/02/29 01:32:10;;;;;;;34.67;17.20;;;;;;;12.33;69.78;101403.66;5057237;28;20116;-46
2024/02/29 01:34:35;;;;;;;34.80;16.95;;;;;;;12.18;70.72;101404.34;5057326;28;20036;-48
2024/02/29 01:37:01;;;;;;;35.28;17.17;;;;;;;12.17;70.98;101397.34;5056956;28;20044;-45
2024/02/29 01:39:26;;;;;;;32.20;16.55;;;;;;;12.25;71.41;101399.19;5038552;28;20029;-44
2024/02/29 01:41:52;;;;;;;33.60;16.77;;;;;;;11.99;71.98;101396.19;5054944;28;20025;-44
2024/02/29 01:44:18;;;;;;;34.35;17.05;;;;;;;12.00;72.05;101385.75;5037349;28;20036;-47
2024/02/29 01:46:44;;;;;;;33.13;16.52;;;;;;;11.84;73.79;101391.56;5053549;28;20128;-44
2024/02/29 01:49:12;;;;;;;36.03;16.90;;;;;;;12.11;72.75;101381.56;5036689;28;20064;-45
2024/02/29 01:51:40;;;;;;;37.47;17.52;;;;;;;11.88;73.97;101369.00;5053041;28;20048;-46
2024/02/29 01:54:05;;;;;;;33.88;17.08;;;;;;;12.01;73.92;101365.75;5018292;28;20029;-43
2024/02/29 01:56:31;;;;;;;35.13;16.55;;;;;;;11.92;73.98;101360.34;5052903;28;20708;-47
2024/02/29 01:58:59;;;;;;;34.47;16.23;;;;;;;12.08;73.39;101350.16;5052113;28;20063;-47
2024/02/29 02:01:25;;;;;;;37.35;17.17;;;;;;;12.26;73.10;101357.38;5034969;28;20041;-46
2024/02/29 02:03:50;;;;;;;32.95;15.98;;;;;;;12.32;73.00;101354.00;5034810;28;20106;-48
2024/02/29 02:06:16;;;;;;;35.50;16.67;;;;;;;12.16;72.99;101340.69;5052652;28;20044;-45
2024/02/29 02:08:41;;;;;;;37.33;16.83;;;;;;;12.46;72.76;101339.34;5052509;28;20045;-44
2024/02/29 02:11:06;;;;;;;32.67;16.67;;;;;;;12.47;72.90;101339.38;5034641;28;20037;-45
2024/02/29 02:13:32;;;;;;;32.88;16.42;;;;;;;12.39;73.61;101341.00;5036086;28;20021;-46
2024/02/29 02:15:57;;;;;;;34.22;16.30;;;;;;;12.46;73.03;101337.63;5035452;28;20542;-45
2024/02/29 02:18:23;;;;;;;31.42;16.52;;;;;;;12.54;73.04;101336.00;5053066;28;20395;-47
2024/02/29 02:20:49;;;;;;;31.55;16.58;;;;;;;12.32;73.90;101327.84;5034149;28;20032;-48
2024/02/29 02:23:15;;;;;;;29.77;16.13;;;;;;;12.45;73.57;101328.00;5051672;28;20491;-45
2024/02/29 02:25:40;;;;;;;34.08;16.30;;;;;;;12.51;73.53;101319.34;5033667;28;20044;-47
2024/02/29 02:28:05;;;;;;;32.95;17.08;;;;;;;12.37;73.84;101320.94;5034313;28;20102;-46
2024/02/29 02:30:31;;;;;;;33.97;16.95;;;;;;;12.48;73.91;101315.00;5034502;28;20121;-47
2024/02/29 02:32:57;;;;;;;32.58;17.40;;;;;;;12.14;75.56;101320.59;5017519;28;20060;-45
2024/02/29 02:35:22;;;;;;;35.65;17.70;;;;;;;12.13;76.26;101318.88;5034959;28;20048;-44
2024/02/29 02:37:49;;;;;;;35.75;18.65;;;;;;;12.08;76.21;101315.28;5051921;28;20439;-48
2024/02/29 02:40:15;;;;;;;36.20;17.52;;;;;;;12.13;76.81;101311.03;5033658;28;20040;-46
2024/02/29 02:42:40;;;;;;;33.15;17.45;;;;;;;12.36;76.04;101306.09;5032936;28;20037;-45
2024/02/29 02:45:06;;;;;;;36.85;17.92;;;;;;;12.03;77.16;101307.41;5052244;28;20039;-46
2024/02/29 02:47:31;;;;;;;34.90;17.70;;;;;;;12.15;76.89;101304.06;5034827;28;20224;-46
2024/02/29 02:49:57;;;;;;;33.60;18.08;;;;;;;12.17;76.83;101302.38;5054280;28;20114;-46
2024/02/29 02:52:22;;;;;;;34.90;17.83;;;;;;;12.12;76.56;101298.81;5039871;28;20045;-49
2024/02/29 02:54:49;;;;;;;35.25;17.83;;;;;;;12.34;76.48;101293.00;5038122;28;20041;-45
2024/02/29 02:57:14;;;;;;;37.72;18.10;;;;;;;12.37;76.43;101289.56;5054985;28;20036;-50
2024/02/29 02:59:39;;;;;;;35.70;18.25;;;;;;;12.43;75.94;101284.41;5051281;28;20033;-48
2024/02/29 03:02:05;;;;;;;38.35;18.33;;;;;;;12.28;76.15;101272.00;5033654;28;20029;-46
2024/02/29 03:04:30;;;;;;;35.92;18.02;;;;;;;12.34;76.45;101277.31;5051462;28;20039;-49
2024/02/29 03:06:55;;;;;;;40.80;17.75;;;;;;;12.37;76.34;101272.16;5033163;28;20059;-46
2024/02/29 03:09:21;;;;;;;33.40;17.90;;;;;;;12.32;76.64;101271.19;5034279;28;20083;-45
2024/02/29 03:11:46;;;;;;;38.28;18.42;;;;;;;12.29;76.43;101268.53;5033100;28;20029;-47
2024/02/29 03:14:13;;;;;;;35.28;17.70;;;;;;;12.51;76.08;101265.31;5051771;28;20039;-47
2024/02/29 03:16:39;;;;;;;37.90;19.40;;;;;;;12.47;76.09;101260.03;4999679;28;20127;-47
2024/02/29 03:19:07;;;;;;;36.22;19.38;;;;;;;12.43;76.41;101263.50;5033098;28;20503;-45
2024/02/29 03:21:32;;;;;;;37.45;18.83;;;;;;;12.54;76.05;101254.91;5050495;28;20033;-46
2024/02/29 03:23:58;;;;;;;35.00;18.58;;;;;;;12.36;76.25;101251.19;5032465;28;20029;-46
2024/02/29 03:26:24;;;;;;;38.47;19.67;;;;;;;12.58;76.08;101253.19;5032932;28;20045;-45
2024/02/29 03:28:49;;;;;;;37.50;19.92;;;;;;;12.35;76.97;101242.47;5033014;28;20028;-46
2024/02/29 03:31:14;;;;;;;38.20;19.58;;;;;;;11.83;78.81;101245.28;5015569;28;20021;-46
2024/02/29 03:33:41;;;;;;;36.70;19.25;;;;;;;12.30;77.26;101240.66;5033821;28;20120;-48
2024/02/29 03:36:08;;;;;;;40.15;20.00;;;;;;;12.38;76.56;101231.19;5052283;28;20052;-45
2024/02/29 03:38:34;;;;;;;40.63;19.83;;;;;;;12.15;77.44;101229.16;5050966;28;20037;-45
2024/02/29 03:41:00;;;;;;;35.42;19.02;;;;;;;12.46;76.70;101233.00;5050759;28;20033;-45
2024/02/29 03:43:26;;;;;;;36.22;18.90;;;;;;;12.63;76.13;101234.94;5052151;28;20032;-45
2024/02/29 03:45:51;;;;;;;37.60;19.35;;;;;;;12.41;76.85;101223.38;5032559;28;20350;-46
2024/02/29 03:48:17;;;;;;;35.95;19.95;;;;;;;12.55;76.69;101220.06;5050859;28;20121;-47
2024/02/29 03:50:42;;;;;;;33.15;18.42;;;;;;;12.66;76.34;101220.16;5049485;28;20055;-43
2024/02/29 03:53:07;;;;;;;36.67;18.63;;;;;;;12.29;77.01;101208.41;5050540;28;20053;-47
2024/02/29 03:55:32;;;;;;;36.72;19.20;;;;;;;12.56;76.46;101206.09;5032676;28;20041;-47
2024/02/29 03:57:58;;;;;;;39.22;19.77;;;;;;;12.43;76.78;101200.75;5050112;28;20069;-46
2024/02/29 04:00:23;;;;;;;37.75;19.35;;;;;;;12.43;77.28;101195.50;5051090;28;20039;-45
2024/02/29 04:02:48;;;;;;;33.88;18.25;;;;;;;12.35;77.53;101195.41;5051038;28;20033;-46
2024/02/29 04:05:14;;;;;;;39.30;18.13;;;;;;;11.87;78.95;101200.03;5051730;28;20025;-45
2024/02/29 04:07:42;;;;;;;35.17;17.95;;;;;;;12.46;77.14;101190.28;5050281;28;20037;-47
2024/02/29 04:10:09;;;;;;;34.50;18.73;;;;;;;12.08;78.27;101188.13;5033011;28;20136;-46
2024/02/29 04:12:34;;;;;;;34.53;17.67;;;;;;;12.62;76.52;101193.97;5050328;28;20033;-47
2024/02/29 04:15:01;;;;;;;36.80;17.95;;;;;;;12.65;76.33;101188.75;5032128;28;20089;-46
2024/02/29 04:17:28;;;;;;;35.45;18.70;;;;;;;12.40;77.15;101183.25;5032966;28;20068;-46
2024/02/29 04:19:54;;;;;;;32.95;18.00;;;;;;;12.60;76.91;101188.72;5015505;28;20065;-44
2024/02/29 04:22:19;;;;;;;31.85;17.73;;;;;;;12.67;76.33;101189.66;5033702;28;20033;-43
2024/02/29 04:24:44;;;;;;;35.47;17.60;;;;;;;12.33;76.71;101178.81;5033336;28;20534;-46
2024/02/29 04:27:10;;;;;;;35.25;18.00;;;;;;;12.51;76.85;101172.91;5033946;28;20483;-44
2024/02/29 04:29:35;;;;;;;33.90;17.52;;;;;;;12.43;77.46;101175.47;5051218;28;20045;-46
2024/02/29 04:32:00;;;;;;;34.25;17.13;;;;;;;12.51;76.98;101178.13;5050773;28;20041;-51
2024/02/29 04:34:26;;;;;;;33.95;18.23;;;;;;;12.47;76.62;101172.00;5049941;28;20269;-48
2024/02/29 04:36:51;;;;;;;34.35;18.27;;;;;;;12.37;77.13;101177.13;5032115;28;20056;-47
2024/02/29 04:39:18;;;;;;;35.53;17.70;;;;;;;12.28;77.03;101171.78;5050761;28;20056;-46
2024/02/29 04:41:45;;;;;;;33.50;17.70;;;;;;;12.62;76.70;101168.69;5032109;28;20086;-46
2024/02/29 04:44:11;;;;;;;30.90;16.95;;;;;;;12.47;77.03;101166.78;5032722;28;20032;-45
2024/02/29 04:46:36;;;;;;;31.95;17.02;;;;;;;12.76;76.01;101156.59;5032509;28;20029;-50
2024/02/29 04:49:01;;;;;;;31.25;17.27;;;;;;;12.52;76.72;101157.25;5015691;28;20029;-45
2024/02/29 04:51:27;;;;;;;33.50;17.45;;;;;;;12.41;77.91;101153.66;5036074;28;20521;-46
2024/02/29 04:53:52;;;;;;;35.63;17.17;;;;;;;12.16;78.15;101152.50;5035546;28;20045;-46
2024/02/29 04:56:18;;;;;;;29.98;17.25;;;;;;;12.63;76.52;101151.22;5037384;28;20025;-46
2024/02/29 04:58:43;;;;;;;32.50;16.70;;;;;;;12.65;76.27;101146.91;5054528;28;20037;-45
2024/02/29 05:01:08;;;;;;;31.17;16.67;;;;;;;12.65;76.29;101144.28;5036021;28;20112;-48
2024/02/29 05:03:34;;;;;;;30.55;16.88;;;;;;;12.73;75.63;101150.47;5036159;28;20041;-46
2024/02/29 05:06:00;;;;;;;32.15;17.48;;;;;;;12.51;76.46;101157.22;5053797;28;20111;-47
2024/02/29 05:08:25;;;;;;;33.58;17.17;;;;;;;12.60;77.21;101137.28;5036674;28;20061;-46
2024/02/29 05:10:51;;;;;;;30.83;16.60;;;;;;;12.64;76.26;101138.16;5053345;28;20479;-45
2024/02/29 05:13:18;;;;;;;28.40;16.05;;;;;;;12.44;77.60;101139.75;5036680;28;20091;-46
2024/02/29 05:15:43;;;;;;;28.95;16.60;;;;;;;12.50;76.26;101145.03;5053962;28;20130;-46
2024/02/29 05:18:09;;;;;;;29.75;16.48;;;;;;;12.60;76.73;101134.66;5055630;28;20055;-44
2024/02/29 05:20:35;;;;;;;28.48;16.33;;;;;;;12.54;76.76;101129.38;5020340;28;20048;-44
2024/02/29 05:23:00;;;;;;;29.52;16.15;;;;;;;12.85;75.85;101130.53;5054244;28;20430;-47
2024/02/29 05:25:28;;;;;;;28.10;16.02;;;;;;;12.87;75.62;101131.38;5054905;28;20064;-46
2024/02/29 05:27:53;;;;;;;28.05;16.08;;;;;;;12.92;75.41;101127.09;5058361;28;20033;-48
2024/02/29 05:30:20;;;;;;;28.33;15.77;;;;;;;12.81;75.64;101126.09;5059275;28;20040;-46
2024/02/29 05:32:45;;;;;;;30.48;16.48;;;;;;;12.62;76.19;101115.50;5057109;28;20033;-46
2024/02/29 05:35:10;;;;;;;29.23;16.38;;;;;;;12.70;75.66;101122.53;5037356;28;20033;-45
2024/02/29 05:37:36;;;;;;;28.83;15.57;;;;;;;12.46;77.02;101112.72;5019839;28;20037;-45
2024/02/29 05:40:05;;;;;;;26.88;15.85;;;;;;;12.53;76.94;101109.31;5018482;28;20442;-47
2024/02/29 05:42:30;;;;;;;31.17;16.30;;;;;;;12.67;76.46;101101.59;5019623;28;20037;-48
2024/02/29 05:44:56;;;;;;;31.10;16.15;;;;;;;12.71;76.42;101111.22;5035414;28;20518;-47
2024/02/29 05:47:21;;;;;;;27.17;15.70;;;;;;;12.79;76.09;101106.94;5036191;28;20533;-46
2024/02/29 05:49:46;;;;;;;27.75;16.50;;;;;;;12.53;76.80;101111.06;5053956;28;20052;-46
2024/02/29 05:52:12;;;;;;;26.08;16.48;;;;;;;12.67;76.63;101105.94;5053924;28;20029;-46
2024/02/29 05:54:37;;;;;;;32.83;17.10;;;;;;;12.40;77.22;101102.22;5036585;28;20033;-45
2024/02/29 05:57:04;;;;;;;29.70;15.75;;;;;;;12.64;76.73;101101.56;5053683;28;20106;-47
2024/02/29 05:59:30;;;;;;;32.72;17.00;;;;;;;12.62;77.02;101094.56;5053786;28;20036;-45
2024/02/29 06:01:56;;;;;;;29.95;16.80;;;;;;;12.44;77.75;101096.13;5051927;28;20048;-46
2024/02/29 06:04:21;;;;;;;30.23;17.48;;;;;;;12.45;77.66;101092.66;5054004;28;20033;-47
2024/02/29 06:06:47;;;;;;;31.17;17.85;;;;;;;12.55;77.59;101094.53;5035066;28;20032;-45
2024/02/29 06:09:14;;;;;;;30.50;18.30;;;;;;;12.59;77.51;101088.44;5053016;28;20128;-47
2024/02/29 06:11:40;;;;;;;36.78;18.40;;;;;;;12.16;78.52;101095.00;5033266;28;20227;-45
2024/02/29 06:14:06;;;;;;;32.25;18.17;;;;;;;12.47;78.24;101093.56;5052381;28;20037;-46
2024/02/29 06:16:32;;;;;;;32.78;18.50;;;;;;;12.16;79.52;101097.63;5034500;28;20044;-46
2024/02/29 06:18:57;;;;;;;33.42;18.95;;;;;;;12.25;79.27;101090.75;5051872;28;20510;-44
2024/02/29 06:21:23;;;;;;;33.80;18.17;;;;;;;12.50;78.30;101090.13;5033885;28;20052;-45
2024/02/29 06:23:48;;;;;;;33.35;17.65;;;;;;;12.58;78.37;101086.69;5051370;28;20029;-43
2024/02/29 06:26:14;;;;;;;33.75;17.95;;;;;;;12.63;78.39;101093.69;5034108;28;20361;-47
2024/02/29 06:28:40;;;;;;;29.92;17.67;;;;;;;12.62;78.74;101086.72;5033955;28;20071;-45
2024/02/29 06:31:06;;;;;;;31.95;18.08;;;;;;;12.59;77.97;101088.44;5033883;28;20119;-46
2024/02/29 06:33:31;;;;;;;28.08;17.48;;;;;;;12.47;78.50;101083.09;5034227;28;20037;-46
2024/02/29 06:35:57;;;;;;;32.40;17.98;;;;;;;12.57;78.26;101086.66;5033986;28;20441;-46
2024/02/29 06:38:22;;;;;;;31.35;18.00;;;;;;;12.52;78.59;101078.78;5034685;28;20064;-48
2024/02/29 06:40:47;;;;;;;32.10;18.23;;;;;;;12.50;78.94;101084.88;5035382;28;20434;-44
2024/02/29 06:43:13;;;;;;;28.48;16.55;;;;;;;12.55;78.50;101083.19;5056323;28;20029;-43
2024/02/29 06:45:46;;;;;;;32.60;17.70;;;;;;;12.60;78.88;101084.09;5040333;28;20021;-45
2024/02/29 06:48:12;;;;;;;29.60;17.52;;;;;;;12.66;78.49;101080.66;5056191;28;20037;-44
2024/02/29 06:50:37;;;;;;;26.77;16.45;;;;;;;12.48;78.90;101078.75;5038365;28;20045;-43
2024/02/29 06:53:03;;;;;;;27.88;16.23;;;;;;;12.52;78.86;101073.56;5053168;28;20033;-44
2024/02/29 06:55:28;;;;;;;27.52;16.08;;;;;;;12.37;79.50;101078.66;5051412;28;20025;-45
2024/02/29 06:57:54;;;;;;;26.48;15.70;;;;;;;12.65;78.71;101065.81;5051303;28;20525;-47
2024/02/29 07:00:19;;;;;;;26.55;15.48;;;;;;;12.71;78.40;101065.84;5051768;28;20430;-45
2024/02/29 07:02:44;;;;;;;26.77;16.17;;;;;;;12.62;78.68;101061.44;5050147;28;20025;-46
2024/02/29 07:05:10;;;;;;;27.13;15.75;;;;;;;12.66;78.23;101076.28;5051349;28;20033;-44
2024/02/29 07:07:36;;;;;;;28.38;15.82;;;;;;;12.63;79.04;101070.13;5033623;28;20044;-45
2024/02/29 07:10:04;;;;;;;25.48;15.43;;;;;;;12.64;78.70;101067.56;5016333;28;20029;-45
2024/02/29 07:12:30;;;;;;;30.40;15.13;;;;;;;12.48;79.46;101060.44;5050476;28;20039;-44
2024/02/29 07:14:55;;;;;;;28.13;15.82;;;;;;;12.25;79.92;101064.59;5049983;28;20040;-44
2024/02/29 07:17:20;;;;;;;25.00;15.23;;;;;;;12.64;79.22;101070.16;5050734;28;20044;-45
2024/02/29 07:19:47;;;;;;;26.02;15.80;;;;;;;12.77;78.94;101066.78;5050144;28;20049;-46
2024/02/29 07:22:13;;;;;;;23.95;14.90;;;;;;;12.60;79.26;101068.41;5032748;28;20384;-46
2024/02/29 07:24:38;;;;;;;26.70;15.45;;;;;;;12.35;80.22;101066.44;5033853;28;20037;-46
2024/02/29 07:27:04;;;;;;;26.23;15.18;;;;;;;12.37;80.06;101056.88;5032892;28;20029;-45
2024/02/29 07:29:29;;;;;;;29.50;16.30;;;;;;;12.77;79.28;101053.69;5052155;28;20040;-45
2024/02/29 07:31:54;;;;;;;27.95;16.10;;;;;;;12.82;78.71;101058.97;5049949;28;20036;-45
2024/02/29 07:34:20;;;;;;;28.65;16.85;;;;;;;12.72;79.50;101067.63;5051242;28;20406;-45
2024/02/29 07:36:45;;;;;;;27.13;16.73;;;;;;;12.84;78.82;101060.75;5050217;28;20045;-46
2024/02/29 07:39:12;;;;;;;28.45;16.75;;;;;;;12.96;78.81;101059.94;5050501;28;20048;-44
2024/02/29 07:41:38;;;;;;;29.10;17.10;;;;;;;12.87;78.89;101057.25;5032301;28;20445;-46
2024/02/29 07:44:03;;;;;;;31.13;17.40;;;;;;;12.93;78.75;101052.94;5032362;28;20029;-46
2024/02/29 07:46:29;;;;;;;28.35;16.27;;;;;;;12.91;79.02;101056.41;5049377;28;20452;-44
2024/02/29 07:48:54;;;;;;;29.55;16.88;;;;;;;13.08;78.49;101046.06;5049799;28;20059;-48
2024/02/29 07:51:19;;;;;;;28.27;16.20;;;;;;;12.85;79.48;101044.19;5049732;28;20033;-45
2024/02/29 07:53:45;;;;;;;26.85;15.85;;;;;;;12.88;79.39;101043.31;5050098;28;20044;-47
2024/02/29 07:56:12;;;;;;;29.23;15.95;;;;;;;12.67;80.16;101035.31;5050253;28;20606;-45
2024/02/29 07:58:38;;;;;;;28.52;16.35;;;;;;;12.96;79.08;101039.00;5050465;28;20049;-47
2024/02/29 08:01:03;;;;;;;27.75;16.05;;;;;;;12.67;79.96;101044.03;5049038;28;20499;-47
2024/02/29 08:03:30;;;;;;;29.05;16.20;;;;;;;12.90;79.51;101046.81;5050812;28;20067;-45
2024/02/29 08:05:55;;;;;;;27.02;15.88;;;;;;;12.64;79.44;101045.75;5050564;28;20492;-46
2024/02/29 08:08:21;;;;;;;29.52;16.50;;;;;;;12.77;79.63;101040.63;5049938;28;20045;-47
2024/02/29 08:10:46;;;;;;;26.63;15.32;;;;;;;13.09;78.79;101058.28;5048865;28;20033;-44
2024/02/29 08:13:11;;;;;;;26.63;15.25;;;;;;;12.88;79.18;101044.19;5050144;28;20039;-45
2024/02/29 08:15:37;;;;;;;27.98;15.40;;;;;;;12.98;78.94;101053.88;5050055;28;20068;-43
2024/02/29 08:18:02;;;;;;;26.50;15.50;;;;;;;13.05;78.82;101046.06;5049956;28;20112;-47
2024/02/29 08:20:27;;;;;;;26.55;15.07;;;;;;;12.76;79.92;101054.56;5050093;28;20033;-45
2024/02/29 08:22:54;;;;;;;25.10;15.20;;;;;;;12.95;78.71;101048.59;5049071;28;20052;-44
2024/02/29 08:25:23;;;;;;;26.35;14.98;;;;;;;12.54;80.56;101037.84;5048928;28;20380;-45
2024/02/29 08:27:49;;;;;;;27.13;15.32;;;;;;;12.69;80.24;101051.88;5050838;28;20033;-44
2024/02/29 08:30:15;;;;;;;28.30;15.20;;;;;;;12.65;80.20;101055.34;5049267;28;20043;-44
2024/02/29 08:32:40;;;;;;;27.90;14.77;;;;;;;12.90;79.51;101045.06;5049645;28;20029;-47
2024/02/29 08:35:07;;;;;;;28.77;15.40;;;;;;;12.97;79.68;101046.88;5049504;28;20045;-44
2024/02/29 08:37:33;;;;;;;26.95;15.32;;;;;;;12.95;79.18;101045.97;5051824;28;20041;-46
2024/02/29 08:39:58;;;;;;;25.83;14.82;;;;;;;12.67;79.80;101040.56;5051116;28;20033;-45
2024/02/29 08:42:23;;;;;;;28.83;14.93;;;;;;;12.70;79.96;101025.75;5052076;28;20033;-44
2024/02/29 08:44:50;;;;;;;25.13;14.65;;;;;;;12.85;79.76;101033.72;5052861;28;20033;-46
2024/02/29 08:47:15;;;;;;;23.83;14.45;;;;;;;12.92;79.39;101032.00;5051337;28;20037;-47
2024/02/29 08:49:41;;;;;;;24.55;14.75;;;;;;;12.90;79.17;101034.63;5051580;28;20032;-48
2024/02/29 08:52:07;;;;;;;24.58;14.70;;;;;;;12.88;79.04;101023.25;5033187;28;20037;-46
2024/02/29 08:54:33;;;;;;;28.42;14.48;;;;;;;13.01;78.57;101027.69;5050267;28;20033;-44
2024/02/29 08:56:58;;;;;;;27.90;14.57;;;;;;;13.10;78.96;101023.41;5051001;28;20532;-44
2024/02/29 08:59:24;;;;;;;25.90;14.25;;;;;;;13.41;77.45;101022.72;5050764;28;20036;-44
2024/02/29 09:01:49;;;;;;;23.75;13.57;;;;;;;13.38;77.51;101022.69;5050206;28;20033;-49
2024/02/29 09:04:14;;;;;;;23.05;13.55;;;;;;;13.24;78.37;101013.88;5050792;28;20418;-44
2024/02/29 09:06:40;;;;;;;22.95;13.18;;;;;;;13.37;77.71;101015.69;5051234;28;20033;-44
2024/02/29 09:09:05;;;;;;;24.30;13.98;;;;;;;12.99;78.48;101012.88;5051538;28;20041;-49
2024/02/29 09:11:30;;;;;;;23.02;13.18;;;;;;;13.21;78.66;101009.53;5050673;28;20079;-46
2024/02/29 09:13:56;;;;;;;27.75;13.35;;;;;;;13.15;78.03;101013.84;5050604;28;20614;-47
2024/02/29 09:16:22;;;;;;;22.48;13.82;;;;;;;13.32;78.01;101010.44;5049469;28;20136;-45
2024/02/29 09:18:47;;;;;;;21.27;12.77;;;;;;;12.64;79.24;101004.78;5049614;28;20390;-45
2024/02/29 09:21:13;;;;;;;20.50;13.15;;;;;;;13.17;78.94;101007.75;5048589;28;20395;-45
2024/02/29 09:23:39;;;;;;;23.98;13.38;;;;;;;13.35;78.17;101006.97;5050254;28;20037;-45
2024/02/29 09:26:04;;;;;;;24.48;13.52;;;;;;;13.44;77.77;100996.50;5050283;28;20155;-48
2024/02/29 09:28:29;;;;;;;22.30;13.65;;;;;;;13.29;77.28;100997.34;5049849;28;20056;-44
2024/02/29 09:30:55;;;;;;;25.45;13.95;;;;;;;13.08;78.96;100997.19;5049376;28;20036;-47
2024/02/29 09:33:20;;;;;;;21.55;13.55;;;;;;;13.27;78.39;100998.19;5049268;28;20065;-44
2024/02/29 09:35:45;;;;;;;22.27;13.20;;;;;;;13.45;77.78;100995.66;5050925;28;20037;-46
2024/02/29 09:38:11;;;;;;;24.08;13.93;;;;;;;13.22;78.49;100989.47;5052662;28;20431;-46
2024/02/29 09:40:36;;;;;;;21.45;12.95;;;;;;;13.12;77.92;100993.75;5034266;28;20033;-45
2024/02/29 09:43:03;;;;;;;20.17;13.13;;;;;;;13.34;77.85;100990.38;5052678;28;20495;-46
2024/02/29 09:45:33;;;;;;;20.63;12.60;;;;;;;13.26;78.08;100992.09;5052236;28;20079;-46
2024/02/29 09:48:00;;;;;;;20.63;13.15;;;;;;;13.27;78.25;100996.47;5034647;28;20040;-49
2024/02/29 09:50:26;;;;;;;19.77;12.73;;;;;;;13.41;77.99;100986.03;5052149;28;20029;-45
2024/02/29 09:52:52;;;;;;;23.33;13.30;;;;;;;13.35;77.94;100986.03;5052420;28;20502;-49
2024/02/29 09:55:19;;;;;;;23.98;12.98;;;;;;;13.17;78.47;100991.19;5052266;28;20037;-49
2024/02/29 09:57:46;;;;;;;20.52;12.90;;;;;;;13.10;78.38;100981.50;5051619;28;20037;-46
2024/02/29 10:00:12;;;;;;;21.35;13.07;;;;;;;13.62;77.11;100988.72;5051621;28;20029;-47
2024/02/29 10:02:40;;;;;;;20.60;12.70;;;;;;;13.77;76.53;100985.28;5051834;28;20035;-46
2024/02/29 10:05:09;;;;;;;22.98;13.13;;;;;;;13.33;76.77;100977.28;5051828;28;20049;-45
2024/02/29 10:07:41;;;;;;;22.10;12.90;;;;;;;13.53;77.05;100975.63;5052265;28;20028;-46
2024/02/29 10:10:09;;;;;;;20.65;12.57;;;;;;;13.53;76.94;100985.22;5051166;28;20043;-49
2024/02/29 10:12:34;;;;;;;19.85;11.23;;;;;;;13.23;77.72;100975.50;5051526;28;20120;-45
2024/02/29 10:15:00;;;;;;;19.77;12.40;;;;;;;13.51;77.15;100971.22;5051981;28;20120;-47
2024/02/29 10:17:25;;;;;;;19.73;11.98;;;;;;;13.54;76.79;100971.25;5051621;28;20091;-47
2024/02/29 10:19:52;;;;;;;19.92;11.95;;;;;;;13.65;76.76;100972.16;5051231;28;20481;-51
2024/02/29 10:22:21;;;;;;;18.05;11.57;;;;;;;13.76;76.81;100959.94;5051543;28;20116;-44
2024/02/29 10:24:54;;;;;;;18.15;12.07;;;;;;;13.72;76.69;100968.66;5053227;28;20060;-45
2024/02/29 10:27:20;;;;;;;20.27;11.70;;;;;;;13.75;76.81;100956.44;5051414;28;20026;-46
2024/02/29 10:29:48;;;;;;;18.73;10.85;;;;;;;13.68;76.41;100954.69;5052304;28;20506;-46
2024/02/29 10:32:15;;;;;;;17.67;11.15;;;;;;;13.52;77.32;100967.75;5033360;28;20028;-46
2024/02/29 10:34:40;;;;;;;15.52;10.30;;;;;;;13.54;76.70;100961.63;5052144;28;20113;-45
2024/02/29 10:37:06;;;;;;;16.10;10.55;;;;;;;13.62;77.32;100952.03;5033688;28;20483;-46
2024/02/29 10:39:32;;;;;;;16.70;10.43;;;;;;;13.98;75.80;100952.97;5051971;28;20040;-48
2024/02/29 10:41:59;;;;;;;18.02;10.38;;;;;;;13.91;76.30;100952.06;5055891;28;20115;-46
2024/02/29 10:44:30;;;;;;;15.82;9.63;;;;;;;13.93;76.35;100949.47;5056454;28;20096;-44
2024/02/29 10:47:02;;;;;;;15.75;9.23;;;;;;;13.82;76.35;100944.22;5054951;28;20044;-46
2024/02/29 10:49:35;;;;;;;15.68;9.77;;;;;;;14.06;75.89;100940.75;5051691;28;20025;-45
2024/02/29 10:52:09;;;;;;;14.55;9.10;;;;;;;14.19;75.57;100943.38;5051505;28;20104;-47
2024/02/29 10:54:42;;;;;;;13.68;8.77;;;;;;;14.10;75.86;100939.84;5051258;28;20090;-47
2024/02/29 10:57:14;;;;;;;13.45;9.25;;;;;;;13.97;76.54;100940.72;5051413;28;20033;-45
2024/02/29 10:59:44;;;;;;;15.00;9.30;;;;;;;14.26;75.66;100939.00;5051522;28;20123;-44
2024/02/29 11:02:10;;;;;;;17.00;9.52;;;;;;;14.17;75.67;100937.25;5050740;28;20059;-45
2024/02/29 11:04:35;;;;;;;14.80;9.65;;;;;;;14.36;75.60;100937.22;5051285;28;20458;-44